sensor_id;sensor_type;location;lat;lon;timestamp;P1;durP1;ratioP1;P2;durP2;ratioP2
73729;SDS011;62036;48.128;16.458;2023-06-26T00:00:19;7.78;;;5.72;;
73729;SDS011;62036;48.128;16.458;2023-06-26T00:02:45;8.32;;;5.35;;
73729;SDS011;62036;48.128;16.458;2023-06-26T00:05:11;8.82;;;5.75;;
73729;SDS011;62036;48.128;16.458;2023-06-26T00:07:38;10.13;;;5.50;;
73729;SDS011;62036;48.128;16.458;2023-06-26T00:10:06;8.15;;;5.18;;
73729;SDS011;62036;48.128;16.458;2023-06-26T00:12:32;7.40;;;5.43;;
73729;SDS011;62036;48.128;16.458;2023-06-26T00:14:58;7.65;;;5.15;;
73729;SDS011;62036;48.128;16.458;2023-06-26T00:17:24;8.82;;;5.50;;
73729;SDS011;62036;48.128;16.458;2023-06-26T00:19:50;7.63;;;5.30;;
73729;SDS011;62036;48.128;16.458;2023-06-26T00:22:17;6.90;;;5.35;;
73729;SDS011;62036;48.128;16.458;2023-06-26T00:24:43;8.75;;;5.60;;
73729;SDS011;62036;48.128;16.458;2023-06-26T00:27:10;7.25;;;5.07;;
73729;SDS011;62036;48.128;16.458;2023-06-26T00:29:36;9.00;;;5.72;;
73729;SDS011;62036;48.128;16.458;2023-06-26T00:32:03;7.35;;;5.15;;
73729;SDS011;62036;48.128;16.458;2023-06-26T00:34:29;8.35;;;5.22;;
73729;SDS011;62036;48.128;16.458;2023-06-26T00:36:55;9.07;;;5.32;;
73729;SDS011;62036;48.128;16.458;2023-06-26T00:39:22;8.30;;;5.20;;
73729;SDS011;62036;48.128;16.458;2023-06-26T00:41:50;11.25;;;5.22;;
73729;SDS011;62036;48.128;16.458;2023-06-26T00:44:18;6.93;;;5.18;;
73729;SDS011;62036;48.128;16.458;2023-06-26T00:46:45;7.97;;;4.82;;
73729;SDS011;62036;48.128;16.458;2023-06-26T00:49:11;7.53;;;5.25;;
73729;SDS011;62036;48.128;16.458;2023-06-26T00:51:38;8.68;;;5.70;;
73729;SDS011;62036;48.128;16.458;2023-06-26T00:54:04;7.38;;;5.22;;
73729;SDS011;62036;48.128;16.458;2023-06-26T00:56:31;7.68;;;5.55;;
73729;SDS011;62036;48.128;16.458;2023-06-26T00:58:57;9.50;;;5.20;;
73729;SDS011;62036;48.128;16.458;2023-06-26T01:01:23;9.40;;;5.32;;
73729;SDS011;62036;48.128;16.458;2023-06-26T01:03:50;9.55;;;5.38;;
73729;SDS011;62036;48.128;16.458;2023-06-26T01:06:17;8.15;;;5.32;;
73729;SDS011;62036;48.128;16.458;2023-06-26T01:08:44;8.35;;;5.03;;
73729;SDS011;62036;48.128;16.458;2023-06-26T01:11:10;8.00;;;5.18;;
73729;SDS011;62036;48.128;16.458;2023-06-26T01:13:36;8.85;;;5.63;;
73729;SDS011;62036;48.128;16.458;2023-06-26T01:16:02;9.75;;;5.32;;
73729;SDS011;62036;48.128;16.458;2023-06-26T01:18:30;8.88;;;5.78;;
73729;SDS011;62036;48.128;16.458;2023-06-26T01:20:56;8.10;;;5.18;;
73729;SDS011;62036;48.128;16.458;2023-06-26T01:23:35;9.43;;;5.90;;
73729;SDS011;62036;48.128;16.458;2023-06-26T01:26:22;7.88;;;5.40;;
73729;SDS011;62036;48.128;16.458;2023-06-26T01:28:51;8.70;;;5.32;;
73729;SDS011;62036;48.128;16.458;2023-06-26T01:31:19;10.40;;;5.72;;
73729;SDS011;62036;48.128;16.458;2023-06-26T01:33:45;7.90;;;4.68;;
73729;SDS011;62036;48.128;16.458;2023-06-26T01:36:12;7.35;;;4.72;;
73729;SDS011;62036;48.128;16.458;2023-06-26T01:38:38;9.52;;;4.93;;
73729;SDS011;62036;48.128;16.458;2023-06-26T01:41:04;7.13;;;4.50;;
73729;SDS011;62036;48.128;16.458;2023-06-26T01:46:08;7.55;;;5.45;;
73729;SDS011;62036;48.128;16.458;2023-06-26T01:48:38;7.55;;;5.07;;
73729;SDS011;62036;48.128;16.458;2023-06-26T01:51:05;11.18;;;5.35;;
73729;SDS011;62036;48.128;16.458;2023-06-26T01:53:36;8.48;;;5.20;;
73729;SDS011;62036;48.128;16.458;2023-06-26T01:56:06;7.00;;;5.30;;
73729;SDS011;62036;48.128;16.458;2023-06-26T01:58:33;9.00;;;5.13;;
73729;SDS011;62036;48.128;16.458;2023-06-26T02:00:59;8.75;;;4.93;;
73729;SDS011;62036;48.128;16.458;2023-06-26T02:03:25;7.40;;;5.18;;
73729;SDS011;62036;48.128;16.458;2023-06-26T02:05:52;7.55;;;4.95;;
73729;SDS011;62036;48.128;16.458;2023-06-26T02:08:18;8.88;;;4.93;;
73729;SDS011;62036;48.128;16.458;2023-06-26T02:10:44;8.75;;;5.18;;
73729;SDS011;62036;48.128;16.458;2023-06-26T02:13:10;8.48;;;4.93;;
73729;SDS011;62036;48.128;16.458;2023-06-26T02:15:36;9.35;;;5.10;;
73729;SDS011;62036;48.128;16.458;2023-06-26T02:18:02;7.93;;;5.03;;
73729;SDS011;62036;48.128;16.458;2023-06-26T02:20:28;7.97;;;4.82;;
73729;SDS011;62036;48.128;16.458;2023-06-26T02:22:54;7.80;;;5.28;;
73729;SDS011;62036;48.128;16.458;2023-06-26T02:25:20;6.97;;;5.05;;
73729;SDS011;62036;48.128;16.458;2023-06-26T02:27:45;7.90;;;4.97;;
73729;SDS011;62036;48.128;16.458;2023-06-26T02:30:11;8.05;;;5.07;;
73729;SDS011;62036;48.128;16.458;2023-06-26T02:32:37;7.72;;;5.07;;
73729;SDS011;62036;48.128;16.458;2023-06-26T02:35:04;11.95;;;6.22;;
73729;SDS011;62036;48.128;16.458;2023-06-26T02:37:30;8.68;;;5.07;;
73729;SDS011;62036;48.128;16.458;2023-06-26T02:39:56;7.90;;;5.55;;
73729;SDS011;62036;48.128;16.458;2023-06-26T02:42:22;9.98;;;5.68;;
73729;SDS011;62036;48.128;16.458;2023-06-26T02:44:48;7.82;;;5.38;;
73729;SDS011;62036;48.128;16.458;2023-06-26T02:47:14;7.53;;;5.00;;
73729;SDS011;62036;48.128;16.458;2023-06-26T02:49:40;8.20;;;5.35;;
73729;SDS011;62036;48.128;16.458;2023-06-26T02:52:06;7.90;;;5.15;;
73729;SDS011;62036;48.128;16.458;2023-06-26T02:54:32;8.55;;;5.85;;
73729;SDS011;62036;48.128;16.458;2023-06-26T02:56:58;7.90;;;5.40;;
73729;SDS011;62036;48.128;16.458;2023-06-26T02:59:24;9.68;;;5.97;;
73729;SDS011;62036;48.128;16.458;2023-06-26T03:01:51;8.15;;;5.00;;
73729;SDS011;62036;48.128;16.458;2023-06-26T03:04:16;9.25;;;5.40;;
73729;SDS011;62036;48.128;16.458;2023-06-26T03:06:43;8.45;;;5.07;;
73729;SDS011;62036;48.128;16.458;2023-06-26T03:09:09;7.82;;;5.35;;
73729;SDS011;62036;48.128;16.458;2023-06-26T03:11:35;7.22;;;4.88;;
73729;SDS011;62036;48.128;16.458;2023-06-26T03:14:01;8.93;;;5.05;;
73729;SDS011;62036;48.128;16.458;2023-06-26T03:16:27;10.27;;;5.68;;
73729;SDS011;62036;48.128;16.458;2023-06-26T03:18:53;7.80;;;5.18;;
73729;SDS011;62036;48.128;16.458;2023-06-26T03:21:19;8.40;;;5.25;;
73729;SDS011;62036;48.128;16.458;2023-06-26T03:23:45;7.20;;;5.20;;
73729;SDS011;62036;48.128;16.458;2023-06-26T03:26:11;7.93;;;5.45;;
73729;SDS011;62036;48.128;16.458;2023-06-26T03:28:39;9.15;;;6.05;;
73729;SDS011;62036;48.128;16.458;2023-06-26T03:31:05;8.68;;;5.38;;
73729;SDS011;62036;48.128;16.458;2023-06-26T03:33:31;9.52;;;5.57;;
73729;SDS011;62036;48.128;16.458;2023-06-26T03:35:57;9.45;;;5.57;;
73729;SDS011;62036;48.128;16.458;2023-06-26T03:38:24;9.05;;;5.45;;
73729;SDS011;62036;48.128;16.458;2023-06-26T03:40:51;8.88;;;5.53;;
73729;SDS011;62036;48.128;16.458;2023-06-26T03:43:17;7.75;;;5.72;;
73729;SDS011;62036;48.128;16.458;2023-06-26T03:45:43;8.63;;;5.93;;
73729;SDS011;62036;48.128;16.458;2023-06-26T03:48:09;9.20;;;5.57;;
73729;SDS011;62036;48.128;16.458;2023-06-26T03:50:35;8.40;;;5.65;;
73729;SDS011;62036;48.128;16.458;2023-06-26T03:53:01;9.25;;;5.28;;
73729;SDS011;62036;48.128;16.458;2023-06-26T03:55:27;7.43;;;5.10;;
73729;SDS011;62036;48.128;16.458;2023-06-26T03:57:53;8.15;;;5.18;;
73729;SDS011;62036;48.128;16.458;2023-06-26T04:00:19;6.32;;;4.88;;
73729;SDS011;62036;48.128;16.458;2023-06-26T04:02:45;9.95;;;6.28;;
73729;SDS011;62036;48.128;16.458;2023-06-26T04:05:11;8.63;;;5.43;;
73729;SDS011;62036;48.128;16.458;2023-06-26T04:07:37;8.88;;;5.50;;
73729;SDS011;62036;48.128;16.458;2023-06-26T04:10:03;8.68;;;5.53;;
73729;SDS011;62036;48.128;16.458;2023-06-26T04:12:29;10.13;;;5.20;;
73729;SDS011;62036;48.128;16.458;2023-06-26T04:14:55;8.93;;;5.57;;
73729;SDS011;62036;48.128;16.458;2023-06-26T04:17:21;7.57;;;5.22;;
73729;SDS011;62036;48.128;16.458;2023-06-26T04:19:47;8.25;;;5.43;;
73729;SDS011;62036;48.128;16.458;2023-06-26T04:22:13;7.95;;;5.60;;
73729;SDS011;62036;48.128;16.458;2023-06-26T04:24:39;7.43;;;5.13;;
73729;SDS011;62036;48.128;16.458;2023-06-26T04:27:05;9.13;;;5.28;;
73729;SDS011;62036;48.128;16.458;2023-06-26T04:29:31;8.43;;;5.43;;
73729;SDS011;62036;48.128;16.458;2023-06-26T04:31:57;9.27;;;5.43;;
73729;SDS011;62036;48.128;16.458;2023-06-26T04:34:27;8.73;;;5.22;;
73729;SDS011;62036;48.128;16.458;2023-06-26T04:36:53;9.23;;;6.15;;
73729;SDS011;62036;48.128;16.458;2023-06-26T04:39:20;8.23;;;5.45;;
73729;SDS011;62036;48.128;16.458;2023-06-26T04:41:46;10.32;;;6.13;;
73729;SDS011;62036;48.128;16.458;2023-06-26T04:44:12;10.10;;;5.70;;
73729;SDS011;62036;48.128;16.458;2023-06-26T04:46:38;7.88;;;4.97;;
73729;SDS011;62036;48.128;16.458;2023-06-26T04:49:08;8.07;;;5.90;;
73729;SDS011;62036;48.128;16.458;2023-06-26T04:51:34;8.95;;;5.85;;
73729;SDS011;62036;48.128;16.458;2023-06-26T04:54:05;9.45;;;5.80;;
73729;SDS011;62036;48.128;16.458;2023-06-26T04:56:31;8.05;;;5.57;;
73729;SDS011;62036;48.128;16.458;2023-06-26T04:58:57;8.10;;;5.47;;
73729;SDS011;62036;48.128;16.458;2023-06-26T05:01:23;11.52;;;5.72;;
73729;SDS011;62036;48.128;16.458;2023-06-26T05:03:49;10.27;;;5.65;;
73729;SDS011;62036;48.128;16.458;2023-06-26T05:06:15;11.73;;;6.22;;
73729;SDS011;62036;48.128;16.458;2023-06-26T05:08:41;11.38;;;5.90;;
73729;SDS011;62036;48.128;16.458;2023-06-26T05:11:07;10.38;;;5.63;;
73729;SDS011;62036;48.128;16.458;2023-06-26T05:13:33;12.80;;;6.13;;
73729;SDS011;62036;48.128;16.458;2023-06-26T05:15:59;8.85;;;5.38;;
73729;SDS011;62036;48.128;16.458;2023-06-26T05:18:25;9.30;;;6.35;;
73729;SDS011;62036;48.128;16.458;2023-06-26T05:20:51;10.35;;;6.22;;
73729;SDS011;62036;48.128;16.458;2023-06-26T05:23:17;11.15;;;5.55;;
73729;SDS011;62036;48.128;16.458;2023-06-26T05:25:44;10.25;;;6.38;;
73729;SDS011;62036;48.128;16.458;2023-06-26T05:28:10;9.15;;;5.78;;
73729;SDS011;62036;48.128;16.458;2023-06-26T05:30:37;11.63;;;6.20;;
73729;SDS011;62036;48.128;16.458;2023-06-26T05:33:03;9.73;;;5.60;;
73729;SDS011;62036;48.128;16.458;2023-06-26T05:35:31;8.73;;;6.10;;
73729;SDS011;62036;48.128;16.458;2023-06-26T05:37:57;7.80;;;6.15;;
73729;SDS011;62036;48.128;16.458;2023-06-26T05:40:23;9.07;;;6.55;;
73729;SDS011;62036;48.128;16.458;2023-06-26T05:42:50;12.52;;;6.63;;
73729;SDS011;62036;48.128;16.458;2023-06-26T05:45:16;9.75;;;6.00;;
73729;SDS011;62036;48.128;16.458;2023-06-26T05:47:42;7.53;;;5.35;;
73729;SDS011;62036;48.128;16.458;2023-06-26T05:50:08;9.30;;;5.50;;
73729;SDS011;62036;48.128;16.458;2023-06-26T05:52:35;7.63;;;5.30;;
73729;SDS011;62036;48.128;16.458;2023-06-26T05:55:01;7.72;;;4.43;;
73729;SDS011;62036;48.128;16.458;2023-06-26T05:57:28;6.10;;;4.43;;
73729;SDS011;62036;48.128;16.458;2023-06-26T05:59:54;5.53;;;3.80;;
73729;SDS011;62036;48.128;16.458;2023-06-26T06:02:21;5.30;;;3.45;;
73729;SDS011;62036;48.128;16.458;2023-06-26T06:04:47;4.72;;;3.15;;
73729;SDS011;62036;48.128;16.458;2023-06-26T06:07:13;6.88;;;4.10;;
73729;SDS011;62036;48.128;16.458;2023-06-26T06:09:39;5.65;;;3.53;;
73729;SDS011;62036;48.128;16.458;2023-06-26T06:12:05;6.45;;;3.65;;
73729;SDS011;62036;48.128;16.458;2023-06-26T06:14:32;5.82;;;3.58;;
73729;SDS011;62036;48.128;16.458;2023-06-26T06:16:58;8.15;;;3.80;;
73729;SDS011;62036;48.128;16.458;2023-06-26T06:19:24;5.63;;;3.50;;
73729;SDS011;62036;48.128;16.458;2023-06-26T06:21:50;7.43;;;3.50;;
73729;SDS011;62036;48.128;16.458;2023-06-26T06:24:16;4.78;;;2.88;;
73729;SDS011;62036;48.128;16.458;2023-06-26T06:26:42;4.68;;;3.13;;
73729;SDS011;62036;48.128;16.458;2023-06-26T06:29:08;4.82;;;3.03;;
73729;SDS011;62036;48.128;16.458;2023-06-26T06:31:35;5.20;;;3.63;;
73729;SDS011;62036;48.128;16.458;2023-06-26T06:34:01;5.18;;;3.63;;
73729;SDS011;62036;48.128;16.458;2023-06-26T06:36:27;9.45;;;3.25;;
73729;SDS011;62036;48.128;16.458;2023-06-26T06:38:53;5.22;;;3.10;;
73729;SDS011;62036;48.128;16.458;2023-06-26T06:41:19;5.22;;;3.05;;
73729;SDS011;62036;48.128;16.458;2023-06-26T06:43:46;5.07;;;3.40;;
73729;SDS011;62036;48.128;16.458;2023-06-26T06:46:12;5.07;;;2.90;;
73729;SDS011;62036;48.128;16.458;2023-06-26T06:48:38;6.10;;;3.42;;
73729;SDS011;62036;48.128;16.458;2023-06-26T06:51:04;4.53;;;3.47;;
73729;SDS011;62036;48.128;16.458;2023-06-26T06:53:30;4.93;;;3.20;;
73729;SDS011;62036;48.128;16.458;2023-06-26T06:55:56;5.55;;;2.90;;
73729;SDS011;62036;48.128;16.458;2023-06-26T06:58:22;5.90;;;4.07;;
73729;SDS011;62036;48.128;16.458;2023-06-26T07:00:49;4.47;;;3.28;;
73729;SDS011;62036;48.128;16.458;2023-06-26T07:03:16;5.40;;;3.22;;
73729;SDS011;62036;48.128;16.458;2023-06-26T07:05:43;4.93;;;3.20;;
73729;SDS011;62036;48.128;16.458;2023-06-26T07:08:09;6.72;;;3.30;;
73729;SDS011;62036;48.128;16.458;2023-06-26T07:10:35;4.93;;;3.47;;
73729;SDS011;62036;48.128;16.458;2023-06-26T07:13:01;5.60;;;3.28;;
73729;SDS011;62036;48.128;16.458;2023-06-26T07:15:27;8.48;;;3.50;;
73729;SDS011;62036;48.128;16.458;2023-06-26T07:17:53;5.32;;;3.00;;
73729;SDS011;62036;48.128;16.458;2023-06-26T07:20:19;5.43;;;2.90;;
73729;SDS011;62036;48.128;16.458;2023-06-26T07:22:45;4.70;;;3.05;;
73729;SDS011;62036;48.128;16.458;2023-06-26T07:25:12;5.38;;;2.90;;
73729;SDS011;62036;48.128;16.458;2023-06-26T07:27:38;5.13;;;2.80;;
73729;SDS011;62036;48.128;16.458;2023-06-26T07:30:04;4.85;;;2.80;;
73729;SDS011;62036;48.128;16.458;2023-06-26T07:32:31;4.32;;;2.90;;
73729;SDS011;62036;48.128;16.458;2023-06-26T07:34:57;5.03;;;3.45;;
73729;SDS011;62036;48.128;16.458;2023-06-26T07:37:23;3.85;;;2.50;;
73729;SDS011;62036;48.128;16.458;2023-06-26T07:39:49;5.88;;;3.20;;
73729;SDS011;62036;48.128;16.458;2023-06-26T07:42:15;5.05;;;2.92;;
73729;SDS011;62036;48.128;16.458;2023-06-26T07:44:41;5.85;;;3.05;;
73729;SDS011;62036;48.128;16.458;2023-06-26T07:47:08;4.22;;;2.42;;
73729;SDS011;62036;48.128;16.458;2023-06-26T07:49:34;3.50;;;2.67;;
73729;SDS011;62036;48.128;16.458;2023-06-26T07:52:00;4.95;;;2.70;;
73729;SDS011;62036;48.128;16.458;2023-06-26T07:54:26;4.32;;;2.42;;
73729;SDS011;62036;48.128;16.458;2023-06-26T07:56:56;3.20;;;2.75;;
73729;SDS011;62036;48.128;16.458;2023-06-26T07:59:23;4.47;;;2.55;;
73729;SDS011;62036;48.128;16.458;2023-06-26T08:01:52;4.63;;;2.95;;
73729;SDS011;62036;48.128;16.458;2023-06-26T08:04:18;4.20;;;2.50;;
73729;SDS011;62036;48.128;16.458;2023-06-26T08:06:48;3.35;;;2.38;;
73729;SDS011;62036;48.128;16.458;2023-06-26T08:09:14;3.00;;;2.53;;
73729;SDS011;62036;48.128;16.458;2023-06-26T08:11:43;3.42;;;2.38;;
73729;SDS011;62036;48.128;16.458;2023-06-26T08:14:09;4.20;;;2.88;;
73729;SDS011;62036;48.128;16.458;2023-06-26T08:16:37;4.28;;;2.97;;
73729;SDS011;62036;48.128;16.458;2023-06-26T08:19:03;3.78;;;2.92;;
73729;SDS011;62036;48.128;16.458;2023-06-26T08:21:29;5.15;;;3.10;;
73729;SDS011;62036;48.128;16.458;2023-06-26T08:23:55;4.60;;;3.20;;
73729;SDS011;62036;48.128;16.458;2023-06-26T08:26:21;4.93;;;3.22;;
73729;SDS011;62036;48.128;16.458;2023-06-26T08:28:47;7.40;;;3.00;;
73729;SDS011;62036;48.128;16.458;2023-06-26T08:31:13;4.45;;;3.00;;
73729;SDS011;62036;48.128;16.458;2023-06-26T08:33:39;6.03;;;3.20;;
73729;SDS011;62036;48.128;16.458;2023-06-26T08:36:05;5.65;;;3.20;;
73729;SDS011;62036;48.128;16.458;2023-06-26T08:38:31;5.57;;;3.15;;
73729;SDS011;62036;48.128;16.458;2023-06-26T08:40:58;5.78;;;3.33;;
73729;SDS011;62036;48.128;16.458;2023-06-26T08:43:24;5.53;;;3.60;;
73729;SDS011;62036;48.128;16.458;2023-06-26T08:45:51;4.25;;;2.60;;
73729;SDS011;62036;48.128;16.458;2023-06-26T08:48:17;5.20;;;3.15;;
73729;SDS011;62036;48.128;16.458;2023-06-26T08:50:48;5.32;;;3.10;;
73729;SDS011;62036;48.128;16.458;2023-06-26T08:55:41;8.05;;;3.15;;
73729;SDS011;62036;48.128;16.458;2023-06-26T08:58:07;10.52;;;4.60;;
73729;SDS011;62036;48.128;16.458;2023-06-26T09:00:33;5.60;;;3.25;;
73729;SDS011;62036;48.128;16.458;2023-06-26T09:02:59;4.70;;;2.80;;
73729;SDS011;62036;48.128;16.458;2023-06-26T09:05:26;4.28;;;3.15;;
73729;SDS011;62036;48.128;16.458;2023-06-26T09:07:52;7.28;;;3.83;;
73729;SDS011;62036;48.128;16.458;2023-06-26T09:10:20;4.07;;;2.90;;
73729;SDS011;62036;48.128;16.458;2023-06-26T09:12:47;5.47;;;3.55;;
73729;SDS011;62036;48.128;16.458;2023-06-26T09:15:19;3.90;;;2.75;;
73729;SDS011;62036;48.128;16.458;2023-06-26T09:17:45;4.32;;;2.63;;
73729;SDS011;62036;48.128;16.458;2023-06-26T09:20:12;6.28;;;3.45;;
73729;SDS011;62036;48.128;16.458;2023-06-26T09:22:40;5.40;;;3.45;;
73729;SDS011;62036;48.128;16.458;2023-06-26T09:25:07;5.03;;;3.33;;
73729;SDS011;62036;48.128;16.458;2023-06-26T09:27:34;7.53;;;3.30;;
73729;SDS011;62036;48.128;16.458;2023-06-26T09:30:01;5.88;;;3.05;;
73729;SDS011;62036;48.128;16.458;2023-06-26T09:32:27;4.65;;;3.22;;
73729;SDS011;62036;48.128;16.458;2023-06-26T09:34:53;6.43;;;3.97;;
73729;SDS011;62036;48.128;16.458;2023-06-26T09:37:25;5.55;;;3.88;;
73729;SDS011;62036;48.128;16.458;2023-06-26T09:39:51;7.15;;;3.63;;
73729;SDS011;62036;48.128;16.458;2023-06-26T09:42:18;5.93;;;4.40;;
73729;SDS011;62036;48.128;16.458;2023-06-26T09:44:45;4.30;;;2.83;;
73729;SDS011;62036;48.128;16.458;2023-06-26T09:47:11;6.70;;;3.85;;
73729;SDS011;62036;48.128;16.458;2023-06-26T09:49:41;6.45;;;3.45;;
73729;SDS011;62036;48.128;16.458;2023-06-26T09:52:13;7.32;;;3.55;;
73729;SDS011;62036;48.128;16.458;2023-06-26T09:54:40;7.55;;;4.57;;
73729;SDS011;62036;48.128;16.458;2023-06-26T09:57:09;5.43;;;3.70;;
73729;SDS011;62036;48.128;16.458;2023-06-26T09:59:35;5.05;;;3.60;;
73729;SDS011;62036;48.128;16.458;2023-06-26T10:02:02;4.55;;;3.40;;
73729;SDS011;62036;48.128;16.458;2023-06-26T10:04:30;3.85;;;2.80;;
73729;SDS011;62036;48.128;16.458;2023-06-26T10:06:56;4.45;;;3.25;;
73729;SDS011;62036;48.128;16.458;2023-06-26T10:09:23;4.30;;;3.20;;
73729;SDS011;62036;48.128;16.458;2023-06-26T10:11:52;5.50;;;3.33;;
73729;SDS011;62036;48.128;16.458;2023-06-26T10:14:20;5.47;;;3.53;;
73729;SDS011;62036;48.128;16.458;2023-06-26T10:16:49;7.88;;;3.60;;
73729;SDS011;62036;48.128;16.458;2023-06-26T10:19:16;5.70;;;3.63;;
73729;SDS011;62036;48.128;16.458;2023-06-26T10:21:53;6.60;;;3.47;;
73729;SDS011;62036;48.128;16.458;2023-06-26T10:24:19;4.90;;;3.15;;
73729;SDS011;62036;48.128;16.458;2023-06-26T10:26:45;4.47;;;3.50;;
73729;SDS011;62036;48.128;16.458;2023-06-26T10:29:11;5.47;;;3.22;;
73729;SDS011;62036;48.128;16.458;2023-06-26T10:31:38;3.70;;;3.15;;
73729;SDS011;62036;48.128;16.458;2023-06-26T10:34:05;5.80;;;3.75;;
73729;SDS011;62036;48.128;16.458;2023-06-26T10:36:32;10.27;;;3.58;;
73729;SDS011;62036;48.128;16.458;2023-06-26T10:39:07;4.53;;;3.63;;
73729;SDS011;62036;48.128;16.458;2023-06-26T10:41:37;5.00;;;3.30;;
73729;SDS011;62036;48.128;16.458;2023-06-26T10:46:51;4.40;;;3.17;;
73729;SDS011;62036;48.128;16.458;2023-06-26T10:49:21;4.13;;;3.05;;
73729;SDS011;62036;48.128;16.458;2023-06-26T10:51:50;4.22;;;3.67;;
73729;SDS011;62036;48.128;16.458;2023-06-26T10:54:17;5.13;;;3.20;;
73729;SDS011;62036;48.128;16.458;2023-06-26T10:56:47;9.27;;;5.65;;
73729;SDS011;62036;48.128;16.458;2023-06-26T11:01:41;5.35;;;3.13;;
73729;SDS011;62036;48.128;16.458;2023-06-26T11:04:07;4.07;;;2.90;;
73729;SDS011;62036;48.128;16.458;2023-06-26T11:06:35;4.30;;;3.28;;
73729;SDS011;62036;48.128;16.458;2023-06-26T11:14:15;5.32;;;3.65;;
73729;SDS011;62036;48.128;16.458;2023-06-26T11:16:43;4.85;;;2.88;;
73729;SDS011;62036;48.128;16.458;2023-06-26T11:19:12;6.40;;;2.67;;
73729;SDS011;62036;48.128;16.458;2023-06-26T11:21:39;4.80;;;2.35;;
73729;SDS011;62036;48.128;16.458;2023-06-26T11:24:08;3.17;;;2.47;;
73729;SDS011;62036;48.128;16.458;2023-06-26T11:26:38;4.15;;;2.35;;
73729;SDS011;62036;48.128;16.458;2023-06-26T11:29:04;3.53;;;2.38;;
73729;SDS011;62036;48.128;16.458;2023-06-26T11:31:31;4.05;;;2.35;;
73729;SDS011;62036;48.128;16.458;2023-06-26T11:34:01;4.18;;;2.45;;
73729;SDS011;62036;48.128;16.458;2023-06-26T11:36:28;2.92;;;2.10;;
73729;SDS011;62036;48.128;16.458;2023-06-26T11:41:20;3.72;;;2.20;;
73729;SDS011;62036;48.128;16.458;2023-06-26T11:43:48;4.13;;;2.55;;
73729;SDS011;62036;48.128;16.458;2023-06-26T11:46:16;3.17;;;2.28;;
73729;SDS011;62036;48.128;16.458;2023-06-26T11:48:43;3.78;;;2.58;;
73729;SDS011;62036;48.128;16.458;2023-06-26T11:51:09;3.30;;;2.30;;
73729;SDS011;62036;48.128;16.458;2023-06-26T11:53:45;5.43;;;2.30;;
73729;SDS011;62036;48.128;16.458;2023-06-26T11:56:13;3.95;;;2.22;;
73729;SDS011;62036;48.128;16.458;2023-06-26T12:03:58;3.35;;;2.30;;
73729;SDS011;62036;48.128;16.458;2023-06-26T12:06:25;3.85;;;2.47;;
73729;SDS011;62036;48.128;16.458;2023-06-26T12:08:51;4.25;;;2.67;;
73729;SDS011;62036;48.128;16.458;2023-06-26T12:11:17;2.72;;;2.25;;
73729;SDS011;62036;48.128;16.458;2023-06-26T12:13:45;3.67;;;3.00;;
73729;SDS011;62036;48.128;16.458;2023-06-26T12:16:11;4.13;;;3.17;;
73729;SDS011;62036;48.128;16.458;2023-06-26T12:18:37;4.35;;;3.47;;
73729;SDS011;62036;48.128;16.458;2023-06-26T12:21:05;4.18;;;2.92;;
73729;SDS011;62036;48.128;16.458;2023-06-26T12:23:38;5.93;;;3.25;;
73729;SDS011;62036;48.128;16.458;2023-06-26T12:26:18;5.97;;;3.47;;
73729;SDS011;62036;48.128;16.458;2023-06-26T12:28:44;5.90;;;3.65;;
73729;SDS011;62036;48.128;16.458;2023-06-26T12:31:14;3.85;;;2.90;;
73729;SDS011;62036;48.128;16.458;2023-06-26T12:33:42;2.70;;;2.00;;
73729;SDS011;62036;48.128;16.458;2023-06-26T12:36:11;5.85;;;4.45;;
73729;SDS011;62036;48.128;16.458;2023-06-26T12:38:38;6.20;;;3.40;;
73729;SDS011;62036;48.128;16.458;2023-06-26T12:41:04;3.72;;;2.40;;
73729;SDS011;62036;48.128;16.458;2023-06-26T12:43:30;3.03;;;2.40;;
73729;SDS011;62036;48.128;16.458;2023-06-26T12:45:56;6.25;;;4.70;;
73729;SDS011;62036;48.128;16.458;2023-06-26T12:48:35;8.07;;;4.88;;
73729;SDS011;62036;48.128;16.458;2023-06-26T12:51:10;3.53;;;2.67;;
73729;SDS011;62036;48.128;16.458;2023-06-26T12:53:37;8.10;;;5.20;;
73729;SDS011;62036;48.128;16.458;2023-06-26T12:56:06;3.88;;;2.67;;
73729;SDS011;62036;48.128;16.458;2023-06-26T12:58:32;3.88;;;2.70;;
73729;SDS011;62036;48.128;16.458;2023-06-26T13:00:58;2.75;;;2.20;;
73729;SDS011;62036;48.128;16.458;2023-06-26T13:03:25;3.75;;;2.75;;
73729;SDS011;62036;48.128;16.458;2023-06-26T13:05:51;3.45;;;2.00;;
73729;SDS011;62036;48.128;16.458;2023-06-26T13:08:17;3.00;;;2.53;;
73729;SDS011;62036;48.128;16.458;2023-06-26T13:10:43;3.33;;;2.33;;
73729;SDS011;62036;48.128;16.458;2023-06-26T13:13:10;4.80;;;2.50;;
73729;SDS011;62036;48.128;16.458;2023-06-26T13:15:36;3.22;;;2.20;;
73729;SDS011;62036;48.128;16.458;2023-06-26T13:18:02;3.83;;;2.67;;
73729;SDS011;62036;48.128;16.458;2023-06-26T13:20:28;4.00;;;2.92;;
73729;SDS011;62036;48.128;16.458;2023-06-26T13:22:54;4.07;;;1.98;;
73729;SDS011;62036;48.128;16.458;2023-06-26T13:25:21;4.60;;;3.83;;
73729;SDS011;62036;48.128;16.458;2023-06-26T13:27:47;5.57;;;4.07;;
73729;SDS011;62036;48.128;16.458;2023-06-26T13:30:14;6.97;;;4.20;;
73729;SDS011;62036;48.128;16.458;2023-06-26T13:32:41;5.47;;;3.70;;
73729;SDS011;62036;48.128;16.458;2023-06-26T13:35:07;3.00;;;2.70;;
73729;SDS011;62036;48.128;16.458;2023-06-26T13:37:34;3.45;;;2.40;;
73729;SDS011;62036;48.128;16.458;2023-06-26T13:40:01;3.40;;;2.40;;
73729;SDS011;62036;48.128;16.458;2023-06-26T13:42:28;3.78;;;2.97;;
73729;SDS011;62036;48.128;16.458;2023-06-26T13:44:54;3.92;;;2.58;;
73729;SDS011;62036;48.128;16.458;2023-06-26T13:47:20;2.70;;;2.35;;
73729;SDS011;62036;48.128;16.458;2023-06-26T13:49:46;2.80;;;2.42;;
73729;SDS011;62036;48.128;16.458;2023-06-26T13:52:12;6.32;;;4.15;;
73729;SDS011;62036;48.128;16.458;2023-06-26T13:54:39;3.50;;;3.08;;
73729;SDS011;62036;48.128;16.458;2023-06-26T13:57:06;4.63;;;2.95;;
73729;SDS011;62036;48.128;16.458;2023-06-26T13:59:32;3.85;;;2.65;;
73729;SDS011;62036;48.128;16.458;2023-06-26T14:01:58;4.10;;;2.50;;
73729;SDS011;62036;48.128;16.458;2023-06-26T14:04:25;4.47;;;2.63;;
73729;SDS011;62036;48.128;16.458;2023-06-26T14:06:51;3.65;;;2.90;;
73729;SDS011;62036;48.128;16.458;2023-06-26T14:09:17;3.72;;;2.60;;
73729;SDS011;62036;48.128;16.458;2023-06-26T14:11:43;5.78;;;2.97;;
73729;SDS011;62036;48.128;16.458;2023-06-26T14:14:09;4.93;;;2.75;;
73729;SDS011;62036;48.128;16.458;2023-06-26T14:16:35;3.53;;;2.47;;
73729;SDS011;62036;48.128;16.458;2023-06-26T14:19:01;4.10;;;3.00;;
73729;SDS011;62036;48.128;16.458;2023-06-26T14:21:28;4.13;;;2.90;;
73729;SDS011;62036;48.128;16.458;2023-06-26T14:23:57;3.75;;;2.72;;
73729;SDS011;62036;48.128;16.458;2023-06-26T14:26:24;4.57;;;2.72;;
73729;SDS011;62036;48.128;16.458;2023-06-26T14:28:50;3.60;;;2.47;;
73729;SDS011;62036;48.128;16.458;2023-06-26T14:31:16;4.30;;;2.85;;
73729;SDS011;62036;48.128;16.458;2023-06-26T14:33:42;5.05;;;3.05;;
73729;SDS011;62036;48.128;16.458;2023-06-26T14:36:08;5.00;;;2.95;;
73729;SDS011;62036;48.128;16.458;2023-06-26T14:38:34;4.72;;;3.20;;
73729;SDS011;62036;48.128;16.458;2023-06-26T14:41:00;4.90;;;3.10;;
73729;SDS011;62036;48.128;16.458;2023-06-26T14:43:26;4.47;;;3.22;;
73729;SDS011;62036;48.128;16.458;2023-06-26T14:45:52;4.88;;;2.95;;
73729;SDS011;62036;48.128;16.458;2023-06-26T14:48:18;3.97;;;2.72;;
73729;SDS011;62036;48.128;16.458;2023-06-26T14:50:44;8.57;;;6.35;;
73729;SDS011;62036;48.128;16.458;2023-06-26T14:53:10;3.85;;;3.42;;